TAF and METAR

METAR for General Enrique Mosconi International Airport

SAVC 061200Z 28022G32KT 250V320 CAVOK 06/M04 Q1015
Report created 6. aug 14:00
wind 22 knots from W (280°) with gusts up to 32 knots Wind direction varies from WSW to NW Clear sky Temperature 6° with dewpoint at -4° (Humidity 48.64%) Pressure 1015 hPa

TAF for General Enrique Mosconi International Airport

TAF SAVC 061100Z 0612/0712 29025G35KT CAVOK TX12/0618Z TN04/0711Z PROB40 TEMPO 0615/0619 29025G40KT BECMG 0700/0702 29020G30KT BECMG 0703/0705 27020G30KT
Report created 6. aug 13:00

between 6. aug 14:00 - 7. aug 14:00

wind 25 knots from WNW (290°) with gusts up to 35 knots Clear sky Max temperature 12° expected today at around 20 o'clock Min temperature 04° expected tomorrow at around 13 o'clock

probably (~40%) temporarily between 6. aug 17:00 - 6. aug 21:00

wind 25 knots from WNW (290°) with gusts up to 40 knots

becoming between 7. aug 02:00 - 7. aug 04:00

wind 20 knots from WNW (290°) with gusts up to 30 knots

becoming between 7. aug 05:00 - 7. aug 07:00

wind 20 knots from W (270°) with gusts up to 30 knots
General Enrique Mosconi International Airport in Argentina at 46m

Latest 5 airports